createdAt,value
2023-02-22T00:02:13.318Z,9.40
2023-02-22T00:04:42.703Z,1.90
2023-02-22T00:07:11.990Z,5.10
2023-02-22T00:09:42.415Z,3.90
2023-02-22T00:12:11.099Z,3.20
2023-02-22T00:14:40.707Z,4.20
2023-02-22T00:17:10.025Z,4.20
2023-02-22T00:19:38.901Z,3.20
2023-02-22T00:22:08.094Z,4.50
2023-02-22T00:24:37.973Z,3.80
2023-02-22T00:27:06.904Z,6.70
2023-02-22T00:29:36.813Z,3.20
2023-02-22T00:32:06.197Z,4.60
2023-02-22T00:34:37.070Z,3.50
2023-02-22T00:37:05.940Z,3.40
2023-02-22T00:39:34.535Z,3.30
2023-02-22T00:42:04.334Z,3.50
2023-02-22T00:44:33.431Z,7.00
2023-02-22T00:47:02.430Z,2.60
2023-02-22T00:49:31.476Z,4.20
2023-02-22T00:52:00.509Z,3.50
2023-02-22T00:54:29.913Z,4.90
2023-02-22T00:56:59.838Z,3.10
2023-02-22T00:59:31.492Z,3.10
2023-02-22T01:02:00.528Z,3.60
2023-02-22T01:04:32.450Z,3.90
2023-02-22T01:07:01.543Z,3.10
2023-02-22T01:09:30.423Z,3.40
2023-02-22T01:11:59.311Z,3.50
2023-02-22T01:14:29.020Z,2.40
2023-02-22T01:16:58.217Z,3.10
2023-02-22T01:19:32.650Z,3.20
2023-02-22T01:22:02.149Z,2.30
2023-02-22T01:24:30.902Z,2.00
2023-02-22T01:27:00.004Z,4.20
2023-02-22T01:29:28.933Z,4.50
2023-02-22T01:31:58.150Z,2.90
2023-02-22T01:34:27.099Z,3.00
2023-02-22T01:36:57.632Z,3.50
2023-02-22T01:39:26.932Z,4.10
2023-02-22T01:41:58.789Z,3.20
2023-02-22T01:44:36.507Z,3.10
2023-02-22T01:47:11.429Z,2.30
2023-02-22T01:49:46.671Z,2.80
2023-02-22T01:52:19.903Z,2.70
2023-02-22T01:54:52.559Z,3.80
2023-02-22T01:57:30.123Z,2.70
2023-02-22T02:00:00.939Z,3.50
2023-02-22T02:02:30.052Z,3.00
2023-02-22T02:04:59.793Z,2.90
2023-02-22T02:07:29.909Z,3.50
2023-02-22T02:10:00.147Z,4.00
2023-02-22T02:12:30.763Z,4.60
2023-02-22T02:15:17.977Z,5.00
2023-02-22T02:17:48.101Z,8.40
2023-02-22T02:20:22.494Z,7.30
2023-02-22T02:23:26.711Z,7.80
2023-02-22T02:26:16.694Z,5.50
2023-02-22T02:28:56.983Z,7.30
2023-02-22T02:31:53.407Z,10.10
2023-02-22T02:34:36.227Z,7.60
2023-02-22T02:37:39.006Z,32.90
2023-02-22T02:40:19.568Z,41.00
2023-02-22T02:42:53.931Z,34.30
2023-02-22T02:45:31.459Z,19.60
2023-02-22T02:48:01.994Z,25.10
2023-02-22T02:50:37.014Z,31.50
2023-02-22T02:53:08.589Z,23.20
2023-02-22T02:55:37.686Z,17.40
2023-02-22T02:58:07.304Z,37.40
2023-02-22T03:00:39.903Z,48.30
2023-02-22T03:03:32.099Z,58.20
2023-02-22T03:06:23.562Z,54.60
2023-02-22T03:09:14.177Z,46.90
2023-02-22T03:12:19.970Z,24.40
2023-02-22T03:15:22.141Z,23.30
2023-02-22T03:18:02.521Z,24.50
2023-02-22T03:20:43.381Z,25.20
2023-02-22T03:23:21.582Z,10.40
2023-02-22T03:25:54.311Z,14.30
2023-02-22T03:28:26.596Z,12.00
2023-02-22T03:31:02.255Z,13.10
2023-02-22T03:33:38.184Z,16.20
2023-02-22T03:36:30.987Z,24.50
2023-02-22T03:39:00.547Z,20.80
2023-02-22T03:41:28.781Z,15.10
2023-02-22T03:44:09.880Z,14.30
2023-02-22T03:46:41.413Z,16.60
2023-02-22T03:51:41.279Z,14.50
2023-02-22T03:54:16.742Z,16.70
2023-02-22T03:57:01.637Z,17.90
2023-02-22T03:59:31.652Z,15.40
2023-02-22T04:02:02.488Z,11.00
2023-02-22T04:04:31.437Z,10.80
2023-02-22T04:07:00.629Z,10.00
2023-02-22T04:09:33.155Z,14.00
2023-02-22T04:12:01.811Z,14.20
2023-02-22T04:14:32.990Z,11.90
2023-02-22T04:17:01.972Z,19.50
2023-02-22T04:19:30.874Z,15.30
2023-02-22T04:22:00.469Z,26.00
2023-02-22T04:24:30.632Z,39.10
2023-02-22T04:27:01.138Z,50.60
2023-02-22T04:29:30.421Z,57.60
2023-02-22T04:32:00.747Z,67.70
2023-02-22T04:34:29.973Z,68.60
2023-02-22T04:36:59.240Z,60.20
2023-02-22T04:39:28.958Z,58.60
2023-02-22T04:41:57.735Z,54.20
2023-02-22T04:44:26.324Z,68.60
2023-02-22T04:46:55.110Z,59.20
2023-02-22T04:49:24.918Z,47.30
2023-02-22T04:51:54.740Z,49.20
2023-02-22T04:54:27.412Z,34.50
2023-02-22T04:56:56.299Z,42.00
2023-02-22T04:59:24.810Z,24.70
2023-02-22T05:02:01.164Z,14.00
2023-02-22T05:04:31.057Z,15.00
2023-02-22T05:07:00.067Z,14.40
2023-02-22T05:09:29.044Z,11.50
2023-02-22T05:11:57.346Z,11.20
2023-02-22T05:14:27.568Z,12.70
2023-02-22T05:17:02.577Z,18.10
2023-02-22T05:19:31.915Z,14.50
2023-02-22T05:22:00.705Z,13.70
2023-02-22T05:24:29.671Z,10.00
2023-02-22T05:26:58.648Z,12.50
2023-02-22T05:29:27.440Z,11.50
2023-02-22T05:31:56.245Z,14.30
2023-02-22T05:34:25.307Z,22.60
2023-02-22T05:36:53.906Z,35.60
2023-02-22T05:39:22.793Z,31.90
2023-02-22T05:41:51.380Z,23.10
2023-02-22T05:44:20.986Z,31.00
2023-02-22T05:46:49.376Z,34.20
2023-02-22T05:49:18.150Z,26.20
2023-02-22T05:51:46.426Z,36.30
2023-02-22T05:54:14.905Z,42.80
2023-02-22T05:56:43.487Z,41.80
2023-02-22T05:59:12.310Z,57.30
2023-02-22T06:01:42.519Z,50.20
2023-02-22T06:04:11.189Z,53.40
2023-02-22T06:06:39.797Z,61.00
2023-02-22T06:09:08.862Z,65.60
2023-02-22T06:11:37.752Z,59.40
2023-02-22T06:14:08.443Z,62.50
2023-02-22T06:16:37.299Z,82.60
2023-02-22T06:19:06.149Z,87.60
2023-02-22T06:21:35.360Z,62.90
2023-02-22T06:24:06.920Z,84.60
2023-02-22T06:26:36.311Z,101.60
2023-02-22T06:29:06.077Z,120.80
2023-02-22T06:31:34.451Z,70.60
2023-02-22T06:34:03.089Z,62.50
2023-02-22T06:36:35.560Z,55.80
2023-02-22T06:39:04.038Z,69.20
2023-02-22T06:41:33.032Z,56.80
2023-02-22T06:44:01.725Z,54.30
2023-02-22T06:46:31.335Z,37.50
2023-02-22T06:49:00.413Z,25.30
2023-02-22T06:51:29.744Z,23.20
2023-02-22T06:53:59.939Z,30.40
2023-02-22T06:56:28.974Z,18.80
2023-02-22T06:59:01.602Z,20.90
2023-02-22T07:01:31.445Z,32.80
2023-02-22T07:04:05.142Z,23.20
2023-02-22T07:06:34.844Z,45.00
2023-02-22T07:09:04.341Z,55.70
2023-02-22T07:11:32.927Z,36.50
2023-02-22T07:14:03.982Z,33.10
2023-02-22T07:16:34.143Z,36.70
2023-02-22T07:19:02.875Z,36.50
2023-02-22T07:21:31.769Z,36.80
2023-02-22T07:24:00.552Z,33.20
2023-02-22T07:26:29.783Z,45.00
2023-02-22T07:28:58.539Z,34.00
2023-02-22T07:31:29.574Z,28.20
2023-02-22T07:33:59.896Z,37.50
2023-02-22T07:36:29.187Z,48.00
2023-02-22T07:38:58.044Z,40.80
2023-02-22T07:41:27.091Z,31.40
2023-02-22T07:43:55.874Z,28.50
2023-02-22T07:46:24.559Z,26.50
2023-02-22T07:48:52.951Z,33.40
2023-02-22T07:51:21.628Z,33.30
2023-02-22T07:53:50.206Z,34.30
2023-02-22T07:56:19.097Z,42.80
2023-02-22T07:58:47.678Z,27.50
2023-02-22T08:01:16.320Z,26.50
2023-02-22T08:03:47.804Z,18.40
2023-02-22T08:06:16.644Z,21.40
2023-02-22T08:08:47.443Z,19.60
2023-02-22T08:11:16.285Z,26.40
2023-02-22T08:13:46.348Z,26.20
2023-02-22T08:16:14.931Z,26.80
2023-02-22T08:18:44.025Z,28.20
2023-02-22T08:21:14.154Z,33.20
2023-02-22T08:23:43.649Z,36.60
2023-02-22T08:26:15.823Z,46.10
2023-02-22T08:28:44.605Z,30.40
2023-02-22T08:31:13.383Z,33.90
2023-02-22T08:33:48.337Z,31.50
2023-02-22T08:36:18.736Z,29.50
2023-02-22T08:38:47.464Z,40.10
2023-02-22T08:41:16.889Z,44.60
2023-02-22T08:43:46.106Z,41.70
2023-02-22T08:46:17.252Z,35.60
2023-02-22T08:48:52.616Z,32.00
2023-02-22T08:51:21.412Z,26.10
2023-02-22T08:53:50.708Z,23.20
2023-02-22T08:56:19.630Z,22.70
2023-02-22T08:58:48.483Z,22.70
2023-02-22T09:01:27.919Z,24.40
2023-02-22T09:04:02.367Z,20.30
2023-02-22T09:06:32.151Z,28.20
2023-02-22T09:09:01.962Z,20.50
2023-02-22T09:11:30.379Z,23.90
2023-02-22T09:13:59.754Z,23.40
2023-02-22T09:16:29.493Z,24.80
2023-02-22T09:18:58.548Z,24.00
2023-02-22T09:21:27.543Z,25.80
2023-02-22T09:23:56.229Z,32.00
2023-02-22T09:26:25.014Z,33.50
2023-02-22T09:28:54.210Z,36.80
2023-02-22T09:31:24.713Z,33.20
2023-02-22T09:33:54.552Z,32.70
2023-02-22T09:36:25.109Z,29.90
2023-02-22T09:38:55.303Z,29.50
2023-02-22T09:41:34.629Z,33.70
2023-02-22T09:44:18.578Z,32.70
2023-02-22T09:46:47.150Z,35.90
2023-02-22T09:49:16.171Z,33.20
2023-02-22T09:51:53.139Z,37.90
2023-02-22T09:54:39.652Z,41.20
2023-02-22T09:57:11.470Z,36.90
2023-02-22T09:59:48.723Z,40.00
2023-02-22T10:02:25.875Z,41.70
2023-02-22T10:05:06.175Z,36.30
2023-02-22T10:07:39.527Z,42.70
2023-02-22T10:10:16.511Z,38.50
2023-02-22T10:13:01.881Z,39.50
2023-02-22T10:15:38.373Z,44.40
2023-02-22T10:18:45.036Z,57.20
2023-02-22T10:21:18.851Z,61.70
2023-02-22T10:24:05.561Z,51.10
2023-02-22T10:26:37.071Z,41.10
2023-02-22T10:29:09.269Z,49.20
2023-02-22T10:31:41.689Z,43.80
2023-02-22T10:34:20.715Z,39.50
2023-02-22T10:36:50.733Z,61.80
2023-02-22T10:39:31.917Z,80.00
2023-02-22T10:42:08.234Z,58.10
2023-02-22T10:44:38.848Z,43.10
2023-02-22T10:47:11.067Z,32.20
2023-02-22T10:49:44.058Z,32.20
2023-02-22T10:52:22.114Z,37.00
2023-02-22T10:54:52.231Z,32.50
2023-02-22T10:57:23.783Z,28.70
2023-02-22T10:59:52.570Z,24.40
2023-02-22T11:02:24.149Z,27.50
2023-02-22T11:04:55.721Z,25.40
2023-02-22T11:07:35.335Z,27.20
2023-02-22T11:10:06.263Z,23.60
2023-02-22T11:12:48.884Z,36.70
2023-02-22T11:15:19.004Z,23.70
2023-02-22T11:17:49.160Z,26.00
2023-02-22T11:20:25.905Z,25.70
2023-02-22T11:23:00.138Z,25.40
2023-02-22T11:25:34.060Z,25.80
2023-02-22T11:28:34.939Z,24.60
2023-02-22T11:31:16.294Z,23.00
2023-02-22T11:36:34.090Z,22.80
2023-02-22T11:39:06.048Z,23.20
2023-02-22T11:41:35.506Z,22.80
2023-02-22T11:44:22.102Z,21.00
2023-02-22T11:46:51.365Z,22.00
2023-02-22T11:49:20.537Z,24.80
2023-02-22T11:52:18.507Z,22.40
2023-02-22T11:55:10.595Z,24.90
2023-02-22T11:57:51.742Z,21.70
2023-02-22T12:00:27.164Z,23.60
2023-02-22T12:03:27.590Z,22.40
2023-02-22T12:06:00.700Z,28.90
2023-02-22T12:08:45.795Z,25.00
2023-02-22T12:11:23.097Z,22.90
2023-02-22T12:13:55.207Z,26.80
2023-02-22T12:16:29.552Z,25.00
2023-02-22T12:19:28.929Z,23.30
2023-02-22T12:22:03.815Z,21.80
2023-02-22T12:24:40.123Z,23.60
2023-02-22T12:27:12.310Z,28.50
2023-02-22T12:29:49.887Z,22.20
2023-02-22T12:32:22.094Z,27.50
2023-02-22T12:35:10.430Z,33.30
2023-02-22T12:37:52.895Z,43.00
2023-02-22T12:40:30.202Z,25.60
2023-02-22T12:43:22.748Z,34.90
2023-02-22T12:46:29.406Z,34.20
2023-02-22T12:49:23.605Z,56.50
2023-02-22T12:52:21.357Z,40.30
2023-02-22T12:55:00.531Z,53.80
2023-02-22T12:58:01.547Z,31.90
2023-02-22T13:00:35.704Z,37.30
2023-02-22T13:03:23.187Z,32.50
2023-02-22T13:05:56.990Z,29.80
2023-02-22T13:08:26.086Z,29.50
2023-02-22T13:11:05.521Z,28.20
2023-02-22T13:13:37.793Z,27.60
2023-02-22T13:16:38.019Z,36.30
2023-02-22T13:19:42.846Z,29.30
2023-02-22T13:22:27.007Z,29.00
2023-02-22T13:24:58.856Z,24.20
2023-02-22T13:28:02.357Z,29.20
2023-02-22T13:30:43.073Z,27.60
2023-02-22T13:33:43.659Z,20.60
2023-02-22T13:36:22.931Z,23.00
2023-02-22T13:39:19.635Z,20.00
2023-02-22T13:41:52.514Z,25.20
2023-02-22T13:45:00.118Z,26.00
2023-02-22T13:47:47.538Z,20.90
2023-02-22T13:50:53.610Z,17.80
2023-02-22T13:53:29.454Z,17.20
2023-02-22T13:56:00.288Z,21.30
2023-02-22T13:58:30.138Z,16.70
2023-02-22T14:00:59.700Z,17.00
2023-02-22T14:03:36.590Z,16.50
2023-02-22T14:06:25.031Z,12.70
2023-02-22T14:08:53.828Z,20.10
2023-02-22T14:11:24.450Z,16.20
2023-02-22T14:14:01.190Z,21.50
2023-02-22T14:16:31.243Z,18.40
2023-02-22T14:19:23.914Z,18.50
2023-02-22T14:22:03.185Z,17.50
2023-02-22T14:24:47.521Z,18.30
2023-02-22T14:27:17.915Z,23.60
2023-02-22T14:30:00.819Z,19.80
2023-02-22T14:32:31.658Z,16.60
2023-02-22T14:35:14.369Z,19.50
2023-02-22T14:37:50.338Z,18.20
2023-02-22T14:40:26.060Z,19.00
2023-02-22T14:43:03.373Z,21.30
2023-02-22T14:45:34.381Z,19.50
2023-02-22T14:48:26.755Z,21.10
2023-02-22T14:51:11.815Z,16.60
2023-02-22T14:54:03.003Z,18.00
2023-02-22T14:56:41.539Z,17.50
2023-02-22T14:59:26.203Z,18.90
2023-02-22T15:02:11.372Z,15.20
2023-02-22T15:04:44.354Z,13.90
2023-02-22T15:07:22.555Z,18.90
2023-02-22T15:09:51.117Z,16.80
2023-02-22T15:12:25.058Z,19.00
2023-02-22T15:15:13.201Z,20.00
2023-02-22T15:17:46.493Z,27.40
2023-02-22T15:20:16.921Z,25.60
2023-02-22T15:22:45.828Z,26.70
2023-02-22T15:25:14.704Z,39.20
2023-02-22T15:27:47.242Z,38.80
2023-02-22T15:30:20.453Z,40.80
2023-02-22T15:33:03.258Z,26.60
2023-02-22T15:35:33.848Z,35.20
2023-02-22T15:38:06.335Z,25.80
2023-02-22T15:40:35.290Z,24.00
2023-02-22T15:43:09.129Z,29.10
2023-02-22T15:45:43.253Z,38.10
2023-02-22T15:48:12.404Z,55.50
2023-02-22T15:51:01.174Z,42.50
2023-02-22T15:53:33.793Z,36.40
2023-02-22T15:56:02.932Z,52.50
2023-02-22T15:58:32.538Z,50.00
2023-02-22T16:01:05.946Z,63.90
2023-02-22T16:03:45.154Z,55.60
2023-02-22T16:06:18.487Z,78.70
2023-02-22T16:08:55.074Z,77.00
2023-02-22T16:11:33.761Z,69.10
2023-02-22T16:14:05.422Z,78.30
2023-02-22T16:16:36.728Z,79.30
2023-02-22T16:19:18.150Z,95.90
2023-02-22T16:21:58.631Z,101.50
2023-02-22T16:24:30.973Z,86.40
2023-02-22T16:27:16.143Z,32.60
2023-02-22T16:30:01.022Z,18.50
2023-02-22T16:32:30.896Z,23.00
2023-02-22T16:35:03.550Z,21.60
2023-02-22T16:37:33.824Z,23.40
2023-02-22T16:40:02.814Z,20.30
2023-02-22T16:42:31.908Z,21.80
2023-02-22T16:45:01.105Z,19.70
2023-02-22T16:47:30.005Z,20.00
2023-02-22T16:49:59.318Z,24.30
2023-02-22T16:52:28.394Z,23.90
2023-02-22T16:54:57.485Z,22.00
2023-02-22T16:57:26.378Z,21.40
2023-02-22T16:59:55.690Z,21.00
2023-02-22T17:02:28.253Z,19.90
2023-02-22T17:04:57.988Z,25.70
2023-02-22T17:07:31.149Z,18.30
2023-02-22T17:10:03.828Z,24.50
2023-02-22T17:12:33.535Z,25.10
2023-02-22T17:15:04.018Z,19.90
2023-02-22T17:17:35.429Z,22.30
2023-02-22T17:20:11.676Z,19.60
2023-02-22T17:22:40.576Z,18.80
2023-02-22T17:25:23.393Z,22.20
2023-02-22T17:27:52.176Z,18.40
2023-02-22T17:30:23.809Z,19.50
2023-02-22T17:32:53.285Z,17.90
2023-02-22T17:35:27.162Z,28.80
2023-02-22T17:37:56.231Z,13.40
2023-02-22T17:40:25.413Z,19.10
2023-02-22T17:42:55.754Z,25.30
2023-02-22T17:45:25.243Z,21.80
2023-02-22T17:47:54.047Z,32.80
2023-02-22T17:50:23.457Z,22.40
2023-02-22T17:52:52.446Z,23.10
2023-02-22T17:55:21.810Z,19.40
2023-02-22T17:57:58.514Z,23.60
2023-02-22T18:00:34.474Z,23.90
2023-02-22T18:03:08.377Z,25.00
2023-02-22T18:05:43.213Z,20.00
2023-02-22T18:08:12.610Z,21.20
2023-02-22T18:10:42.728Z,17.70
2023-02-22T18:13:16.957Z,18.90
2023-02-22T18:15:50.262Z,19.50
2023-02-22T18:18:19.409Z,18.90
2023-02-22T18:20:51.921Z,18.70
2023-02-22T18:23:22.477Z,21.50
2023-02-22T18:26:09.138Z,22.70
2023-02-22T18:28:39.409Z,18.30
2023-02-22T18:31:16.026Z,15.00
2023-02-22T18:33:46.382Z,15.90
2023-02-22T18:36:16.140Z,21.20
2023-02-22T18:38:45.275Z,26.60
2023-02-22T18:41:15.341Z,18.10
2023-02-22T18:43:44.589Z,18.40
2023-02-22T18:46:14.646Z,19.30
2023-02-22T18:48:44.731Z,23.90
2023-02-22T18:51:17.743Z,21.20
2023-02-22T18:53:50.953Z,16.10
2023-02-22T18:56:30.129Z,18.80
2023-02-22T18:59:03.652Z,16.10
2023-02-22T19:01:39.073Z,22.00
2023-02-22T19:04:15.239Z,19.40
2023-02-22T19:06:45.869Z,19.90
2023-02-22T19:09:16.889Z,17.30
2023-02-22T19:11:47.232Z,17.50
2023-02-22T19:14:17.866Z,15.70
2023-02-22T19:16:46.867Z,18.60
2023-02-22T19:19:21.184Z,18.30
2023-02-22T19:21:50.885Z,19.30
2023-02-22T19:24:19.978Z,19.80
2023-02-22T19:26:54.194Z,17.30
2023-02-22T19:29:26.169Z,23.10
2023-02-22T19:31:55.377Z,21.70
2023-02-22T19:34:26.292Z,20.60
2023-02-22T19:36:56.226Z,22.40
2023-02-22T19:39:26.235Z,17.90
2023-02-22T19:41:56.237Z,20.00
2023-02-22T19:44:26.282Z,27.10
2023-02-22T19:46:57.855Z,24.10
2023-02-22T19:51:58.366Z,31.70
2023-02-22T19:54:28.079Z,24.70
2023-02-22T19:56:58.841Z,23.90
2023-02-22T19:59:28.515Z,25.20
2023-02-22T20:01:57.807Z,24.50
2023-02-22T20:04:30.859Z,22.90
2023-02-22T20:07:00.910Z,21.20
2023-02-22T20:09:30.322Z,22.90
2023-02-22T20:11:59.412Z,25.80
2023-02-22T20:14:28.859Z,27.40
2023-02-22T20:16:58.382Z,29.10
2023-02-22T20:19:28.333Z,27.20
2023-02-22T20:21:56.943Z,28.00
2023-02-22T20:24:28.465Z,29.90
2023-02-22T20:26:58.709Z,29.50
2023-02-22T20:29:32.603Z,25.60
2023-02-22T20:34:34.482Z,26.30
2023-02-22T20:37:03.768Z,26.90
2023-02-22T20:39:32.763Z,37.30
2023-02-22T20:42:03.088Z,40.10
2023-02-22T20:44:32.386Z,46.60
2023-02-22T20:47:03.943Z,39.40
2023-02-22T20:49:36.228Z,51.90
2023-02-22T20:52:04.996Z,54.40
2023-02-22T20:54:35.422Z,59.10
2023-02-22T20:57:04.242Z,60.30
2023-02-22T20:59:32.595Z,54.00
2023-02-22T21:02:01.185Z,64.90
2023-02-22T21:04:33.250Z,65.20
2023-02-22T21:07:02.770Z,50.00
2023-02-22T21:09:34.916Z,47.40
2023-02-22T21:12:11.588Z,53.40
2023-02-22T21:14:41.708Z,50.10
2023-02-22T21:17:11.425Z,49.60
2023-02-22T21:19:39.893Z,56.30
2023-02-22T21:22:12.883Z,61.80
2023-02-22T21:24:42.913Z,52.20
2023-02-22T21:27:12.819Z,50.90
2023-02-22T21:29:42.317Z,47.60
2023-02-22T21:32:10.915Z,39.10
2023-02-22T21:34:39.996Z,45.50
2023-02-22T21:37:08.980Z,32.50
2023-02-22T21:39:39.022Z,37.00
2023-02-22T21:42:08.490Z,42.90
2023-02-22T21:44:38.034Z,42.60
2023-02-22T21:47:08.336Z,36.30
2023-02-22T21:49:38.469Z,34.10
2023-02-22T21:52:08.177Z,37.60
2023-02-22T21:54:37.169Z,30.80
2023-02-22T21:57:06.773Z,30.80
2023-02-22T21:59:35.869Z,27.10
2023-02-22T22:02:04.653Z,29.70
2023-02-22T22:04:35.300Z,33.50
2023-02-22T22:07:05.711Z,27.50
2023-02-22T22:09:37.868Z,34.50
2023-02-22T22:12:10.228Z,29.60
2023-02-22T22:14:39.139Z,44.20
2023-02-22T22:17:09.884Z,28.70
2023-02-22T22:19:40.798Z,33.40
2023-02-22T22:22:09.701Z,30.20
2023-02-22T22:24:42.062Z,27.90
2023-02-22T22:27:13.340Z,35.80
2023-02-22T22:32:14.000Z,22.40
2023-02-22T22:34:43.970Z,43.90
2023-02-22T22:37:13.589Z,60.90
2023-02-22T22:39:42.910Z,77.50
2023-02-22T22:42:11.872Z,100.40
2023-02-22T22:44:43.325Z,109.50
2023-02-22T22:47:12.782Z,119.80
2023-02-22T22:49:42.969Z,115.30
2023-02-22T22:52:15.425Z,90.40
2023-02-22T22:54:50.974Z,74.50
2023-02-22T22:57:20.373Z,76.10
2023-02-22T22:59:50.282Z,88.50
2023-02-22T23:02:20.604Z,86.10
2023-02-22T23:04:52.383Z,77.40
2023-02-22T23:07:21.006Z,84.80
2023-02-22T23:09:50.137Z,99.00
2023-02-22T23:12:19.850Z,74.50
2023-02-22T23:14:52.337Z,95.30
2023-02-22T23:17:31.541Z,92.30
2023-02-22T23:20:00.652Z,73.20
2023-02-22T23:22:29.976Z,67.20
2023-02-22T23:25:00.286Z,72.60
2023-02-22T23:27:30.502Z,74.60
2023-02-22T23:29:59.806Z,69.40
2023-02-22T23:32:28.926Z,88.10
2023-02-22T23:34:57.902Z,74.50
2023-02-22T23:37:26.790Z,65.40
2023-02-22T23:39:55.771Z,53.30
2023-02-22T23:42:25.725Z,46.80
2023-02-22T23:44:54.687Z,42.60
2023-02-22T23:47:32.067Z,30.60
2023-02-22T23:50:01.331Z,28.30
2023-02-22T23:52:30.669Z,32.70
2023-02-22T23:55:02.223Z,26.70
